63TX weather

CLOSED Grosser Airport
Bergheim, Texas, United States

Public forecast

Using degrees Fahrenheit for public forecast. Weather courtesy of forecast.io.

Closest aviation weather report (METAR) to Grosser Airport

Closest report is Boerne Stage Field, 6.8 nm (12.6 km) WSW. Retrieved 2020/08/03 11:35 UTC (6 minutes ago):

K5C1 031135Z AUTO 00000KT 10SM CLR 19/19 A3006 RMK AO1

Closest aviation forecast (TAF) to Grosser Airport

Closest forecast is San Antonio International Airport, 15.6 nm (28.8 km) SSE. Retrieved 2020/08/03 06:40 UTC (5 hours ago):

TAF KSAT 030538Z 0306/0412 22003KT P6SM FEW250 FM032100 10006KT P6SM SCT050 SCT250